New Harbor, ME (Heathkit)

43° 52' 34"N, 69° 29' 40"W, Elevation 65 ft.
Eastern Time

Hourly observations for the last 72 hours

Date Time Temperature (°F) Humi-
dity

(%)
Wind
(mph)
Pressure Rain (in)
Air Dew 6 Hour 1 Hr 3 Hr 6 Hr Day
Alt
(in)
Sea
Level

(mb)
Max Min
20 15:00 41 27 58 SSW 3 G 8 29.46 997.7 0.09
20 14:00 40 34 78 SSW 5 G 12 29.42 996.3 0.03 0.09
20 13:00 41 34 41 32 77 SW 5 G 12 29.40 995.6 0.03 0.06 0.06 0.06
20 12:00 37 30 76 SW 5 G 11 29.41 996.0 0.01 0.03
20 11:00 38 31 77 SW 5 G 20 29.42 996.3 0.02 0.02
20 10:00 37 31 78 SW 6 G 14 29.41 996.0 0.00
20 09:00 37 31 79 SW 9 G 19 29.40 995.6 0.00
20 08:00 36 23 58 SSW 7 G 15 29.41 996.0 0.00
20 07:00 35 28 35 27 76 SSW 6 G 17 29.45 997.3 0.00
20 06:00 34 28 78 SSW 5 G 23 29.46 997.7 0.00
20 05:00 34 22 61 SSW 4 G 20 29.50 999.0 0.00
20 04:00 35 23 62 SW 5 G 11 29.56 1001.0 0.00
20 03:00 33 21 60 SW 5 G 12 29.60 1002.4 0.00
20 02:00 32 20 60 SW 6 G 14 29.63 1003.4 0.00
20 01:00 30 24 31 27 78 SSW 3 G 6 29.65 1004.1 0.00
20 00:00 31 25 78 SSW 2 G 7 29.67 1004.8 0.05
19 23:00 31 25 77 SW 4 G 9 29.71 1006.1 0.05
19 22:00 31 25 79 SW 2 G 4 29.71 1006.1 0.05
19 21:00 31 24 76 SSW 2 G 7 29.74 1007.1 0.05
19 20:00 31 25 78 SSW 2 G 4 29.74 1007.1 0.05
19 19:00 31 25 35 27 78 WSW 2 G 3 29.74 1007.1 0.04 0.05
19 18:00 31 25 78 WSW 2 G 3 29.75 1007.5 0.05
19 17:00 31 25 78 SW 2 G 3 29.77 1008.2 0.05
19 16:00 32 18 55 S 0 G 2 29.76 1007.8 0.04 0.05
19 15:00 32 22 65 SW 2 G 6 29.76 1007.8 0.01 0.05
19 14:00 33 19 55 SW 4 G 8 29.75 1007.5 0.03 0.04
19 13:00 35 26 35 17 68 SSW 4 G 6 29.75 1007.5 0.01 0.01 0.01 0.01
19 12:00 33 26 75 SSW 2 G 9 29.77 1008.2 0.00
19 11:00 29 16 59 SW 3 G 4 29.79 1008.8 0.00
19 10:00 27 13 54 SW 3 G 6 29.82 1009.9 0.00
19 09:00 23 7 50 S 2 G 3 29.81 1009.5 0.00
19 08:00 21 7 55 S 1 G 2 29.80 1009.2 0.00
19 07:00 19 13 19 11 78 S 2 G 3 29.80 1009.2 0.00
19 06:00 17 3 54 SW 2 G 4 29.77 1008.2 0.00
19 05:00 16 4 59 SW 2 G 4 29.78 1008.5 0.00
19 04:00 14 8 77 S 2 G 3 29.76 1007.8 0.00
19 03:00 13 7 76 SSW 1 G 3 29.76 1007.8 0.00
19 02:00 14 8 75 SW 2 G 4 29.75 1007.5 0.00
19 01:00 15 -0 20 13 50 SW 1 G 3 29.74 1007.1 0.00
19 00:00 17 4 57 SSW 2 G 3 29.75 1007.5 0.09
18 23:00 18 5 56 WSW 2 G 3 29.74 1007.1 0.09
18 22:00 19 5 53 S 2 G 6 29.74 1007.1 0.09
18 21:00 18 12 77 S 2 G 6 29.74 1007.1 0.09
18 20:00 19 5 54 WSW 2 G 3 29.74 1007.1 0.09
18 19:00 20 6 30 18 53 WSW 0 G 2 29.74 1007.1 0.05 0.09
18 18:00 22 8 54 WSW 0 G 1 29.71 1006.1 0.09
18 17:00 25 12 56 SE 0 G 1 29.70 1005.8 0.09
18 16:00 28 15 57 S 2 G 7 29.69 1005.5 0.01 0.05 0.09
18 15:00 29 13 51 S 2 G 10 29.67 1004.8 0.02 0.08
18 14:00 29 13 50 SSE 3 G 10 29.69 1005.5 0.02 0.06
18 13:00 30 15 31 14 53 S 5 G 9 29.71 1006.1 0.04 0.04 0.04 0.04
18 12:00 29 14 54 SW 6 G 13 29.73 1006.8 0.00
18 11:00 27 12 53 S 4 G 12 29.76 1007.8 0.00
18 10:00 24 8 50 SSW 6 G 14 29.78 1008.5 0.00
18 09:00 22 9 58 Calm 29.79 1008.8 0.00
18 08:00 16 2 53 Calm 29.79 1008.8 0.00
18 07:00 17 4 26 15 55 Calm 29.79 1008.8 0.00
18 06:00 19 5 54 Calm 29.80 1009.2 0.00
18 05:00 20 7 57 Calm 29.80 1009.2 0.00
18 04:00 22 8 54 Calm 29.81 1009.5 0.00
18 03:00 23 9 54 Calm 29.81 1009.5 0.00
18 02:00 26 20 78 Calm 29.82 1009.9 0.00
18 01:00 26 20 28 25 78 Calm 29.86 1011.2 0.00
18 00:00 26 20 78 Calm 29.88 1011.9 0.00
17 23:00 27 13 55 Calm 29.88 1011.9 0.00
17 22:00 27 12 52 Calm 29.88 1011.9 0.00
17 21:00 28 22 78 Calm 29.89 1012.2 0.00
17 20:00 28 22 78 Calm 29.91 1012.9 0.00
17 19:00 28 13 30 25 53 Calm 29.92 1013.2 0.00
17 18:00 28 26 92 Calm 29.95 1014.3 0.00
17 17:00 29 23 78 Calm 29.97 1014.9 0.00
17 16:00 29 26 88 Calm 29.99 1015.6 0.00

Data generated by WxSolution Version 1.9.0.8, Build 2017.07.06.